createdAt,value
2019-06-10T00:01:08.778Z,20.94
2019-06-10T00:06:20.983Z,20.77
2019-06-10T00:11:28.060Z,20.88
2019-06-10T00:16:33.507Z,20.88
2019-06-10T00:21:41.235Z,21.11
2019-06-10T00:26:46.091Z,21.12
2019-06-10T00:31:51.495Z,20.85
2019-06-10T00:36:56.947Z,21.07
2019-06-10T00:42:06.332Z,20.98
2019-06-10T00:47:14.743Z,20.86
2019-06-10T00:52:17.456Z,20.81
2019-06-10T00:57:22.908Z,20.91
2019-06-10T01:02:28.360Z,20.55
2019-06-10T01:07:33.762Z,20.66
2019-06-10T01:12:40.803Z,20.75
2019-06-10T01:17:46.254Z,20.75
2019-06-10T01:27:57.180Z,20.71
2019-06-10T01:33:04.228Z,20.80
2019-06-10T01:38:13.044Z,20.72
2019-06-10T01:43:18.387Z,20.83
2019-06-10T01:48:40.206Z,20.61
2019-06-10T01:53:32.569Z,20.76
2019-06-10T01:58:38.075Z,20.63
2019-06-10T02:03:44.865Z,20.70
2019-06-10T02:08:54.317Z,20.51
2019-06-10T02:14:00.902Z,20.61
2019-06-10T02:19:06.831Z,20.70
2019-06-10T02:24:14.355Z,20.75
2019-06-10T02:29:21.744Z,21.01
2019-06-10T02:34:27.723Z,21.04
2019-06-10T02:39:38.654Z,20.88
2019-06-10T02:44:44.562Z,20.93
2019-06-10T02:50:01.550Z,21.10
2019-06-10T02:54:59.715Z,20.89
2019-06-10T03:00:19.752Z,20.84
2019-06-10T03:05:17.592Z,20.86
2019-06-10T03:10:29.517Z,20.99
2019-06-10T03:15:32.051Z,20.89
2019-06-10T03:20:36.855Z,20.92
2019-06-10T03:25:42.364Z,20.82
2019-06-10T03:30:53.955Z,20.76
2019-06-10T03:35:55.086Z,20.93
2019-06-10T03:41:03.009Z,20.89
2019-06-10T03:46:13.570Z,20.55
2019-06-10T03:51:19.201Z,21.20
2019-06-10T03:56:28.182Z,21.12
2019-06-10T04:01:33.865Z,21.42
2019-06-10T04:06:39.303Z,21.05
2019-06-10T04:11:44.734Z,21.12
2019-06-10T04:16:52.396Z,21.14
2019-06-10T04:22:02.438Z,20.84
2019-06-10T04:27:09.281Z,20.90
2019-06-10T04:32:14.743Z,21.09
2019-06-10T04:37:20.384Z,21.27
2019-06-10T04:42:27.373Z,21.31
2019-06-10T04:47:33.380Z,21.25
2019-06-10T04:52:43.219Z,20.62
2019-06-10T04:57:49.208Z,20.61
2019-06-10T05:02:54.622Z,21.42
2019-06-10T05:08:02.514Z,22.38
2019-06-10T05:13:07.310Z,23.14
2019-06-10T05:18:13.169Z,23.01
2019-06-10T05:23:19.644Z,23.47
2019-06-10T05:28:27.490Z,24.55
2019-06-10T05:33:33.619Z,25.20
2019-06-10T05:38:39.085Z,25.35
2019-06-10T05:43:44.546Z,25.80
2019-06-10T05:48:52.726Z,26.21
2019-06-10T05:53:58.400Z,25.49
2019-06-10T05:59:04.449Z,25.54
2019-06-10T06:04:12.466Z,25.72
2019-06-10T06:09:17.445Z,24.25
2019-06-10T06:14:22.925Z,25.32
2019-06-10T06:19:28.398Z,25.96
2019-06-10T06:24:35.511Z,25.75
2019-06-10T06:29:43.150Z,26.26
2019-06-10T06:34:48.321Z,26.58
2019-06-10T06:39:53.762Z,26.70
2019-06-10T06:45:02.825Z,26.88
2019-06-10T06:50:09.311Z,26.45
2019-06-10T06:55:16.923Z,27.09
2019-06-10T07:00:48.077Z,27.59
2019-06-10T07:05:35.649Z,28.13
2019-06-10T07:10:43.553Z,28.73
2019-06-10T07:15:53.470Z,28.63
2019-06-10T07:20:59.051Z,28.34
2019-06-10T07:26:04.701Z,27.72
2019-06-10T07:31:20.870Z,28.68
2019-06-10T07:36:17.412Z,29.48
2019-06-10T07:41:27.253Z,29.21
2019-06-10T07:46:33.524Z,29.04
2019-06-10T07:51:41.364Z,29.23
2019-06-10T07:56:50.215Z,28.87
2019-06-10T08:01:55.306Z,28.76
2019-06-10T08:07:03.347Z,29.41
2019-06-10T08:12:12.722Z,29.37
2019-06-10T08:17:18.365Z,28.36
2019-06-10T08:22:35.127Z,28.04
2019-06-10T08:27:33.437Z,28.82
2019-06-10T08:32:38.453Z,28.46
2019-06-10T08:37:45.931Z,28.12
2019-06-10T08:42:53.555Z,28.38
2019-06-10T08:47:58.386Z,27.93
2019-06-10T08:53:13.495Z,27.46
2019-06-10T08:58:13.324Z,26.93
2019-06-10T09:03:18.845Z,26.57
2019-06-10T09:08:24.537Z,27.58
2019-06-10T09:13:31.257Z,27.90
2019-06-10T09:18:37.283Z,27.86
2019-06-10T09:23:47.126Z,28.01
2019-06-10T09:28:53.793Z,27.27
2019-06-10T09:33:57.589Z,27.47
2019-06-10T09:39:03.921Z,28.03
2019-06-10T09:44:12.640Z,27.66
2019-06-10T09:49:17.675Z,27.23
2019-06-10T09:54:23.344Z,27.06
2019-06-10T09:59:29.092Z,26.69
2019-06-10T10:04:37.451Z,27.15
2019-06-10T10:09:48.191Z,26.58
2019-06-10T10:14:55.901Z,26.92
2019-06-10T10:19:59.881Z,25.98
2019-06-10T10:25:06.082Z,26.98
2019-06-10T10:30:13.498Z,27.46
2019-06-10T10:35:24.261Z,28.16
2019-06-10T10:40:32.349Z,28.14
2019-06-10T10:45:37.883Z,28.25
2019-06-10T10:50:45.501Z,27.16
2019-06-10T10:55:51.849Z,27.57
2019-06-10T11:00:57.992Z,27.49
2019-06-10T11:06:04.252Z,28.51
2019-06-10T11:11:13.419Z,28.14
2019-06-10T11:16:22.497Z,28.52
2019-06-10T11:21:28.883Z,28.07
2019-06-10T11:26:34.432Z,27.59
2019-06-10T11:31:42.327Z,27.41
2019-06-10T11:36:47.979Z,28.32
2019-06-10T11:41:56.000Z,28.55
2019-06-10T11:47:03.223Z,28.72
2019-06-10T11:52:12.600Z,29.04
2019-06-10T11:57:18.657Z,29.21
2019-06-10T12:02:24.248Z,28.46
2019-06-10T12:07:29.786Z,28.17
2019-06-10T12:12:35.399Z,27.79
2019-06-10T12:17:50.062Z,27.43
2019-06-10T12:22:49.491Z,27.43
2019-06-10T12:28:01.253Z,28.13
2019-06-10T12:33:19.917Z,28.25
2019-06-10T12:38:22.491Z,29.24
2019-06-10T12:43:28.841Z,28.60
2019-06-10T12:48:38.006Z,28.92
2019-06-10T12:53:44.076Z,28.58
2019-06-10T12:58:49.993Z,29.05
2019-06-10T13:03:55.667Z,28.68
2019-06-10T13:09:04.349Z,29.87
2019-06-10T13:14:12.976Z,29.34
2019-06-10T13:19:23.239Z,29.79
2019-06-10T13:24:29.466Z,29.58
2019-06-10T13:29:35.226Z,29.75
2019-06-10T13:34:42.394Z,30.56
2019-06-10T13:39:48.056Z,30.94
2019-06-10T13:44:53.896Z,31.27
2019-06-10T13:50:03.355Z,30.50
2019-06-10T13:55:09.632Z,29.14
2019-06-10T14:00:16.184Z,29.32
2019-06-10T14:05:22.623Z,28.59
2019-06-10T14:10:28.450Z,29.12
2019-06-10T14:15:34.949Z,28.38
2019-06-10T14:20:43.069Z,29.04
2019-06-10T14:25:48.187Z,28.59
2019-06-10T14:30:55.794Z,28.12
2019-06-10T14:36:05.361Z,28.48
2019-06-10T14:41:12.297Z,28.88
2019-06-10T14:46:22.909Z,28.91
2019-06-10T14:51:32.469Z,29.52
2019-06-10T14:56:52.531Z,28.73
2019-06-10T15:01:47.606Z,29.42
2019-06-10T15:06:54.039Z,28.78
2019-06-10T15:12:02.830Z,27.96
2019-06-10T15:17:10.584Z,28.41
2019-06-10T15:22:17.154Z,28.71
2019-06-10T15:27:29.836Z,28.59
2019-06-10T15:32:34.493Z,28.42
2019-06-10T15:37:38.668Z,28.16
2019-06-10T15:42:44.827Z,28.99
2019-06-10T15:47:50.412Z,28.55
2019-06-10T15:52:56.439Z,29.17
2019-06-10T15:58:02.242Z,28.80
2019-06-10T16:03:07.811Z,29.50
2019-06-10T16:08:17.077Z,29.52
2019-06-10T16:13:25.874Z,29.87
2019-06-10T16:18:35.634Z,30.05
2019-06-10T16:23:43.200Z,28.76
2019-06-10T16:28:49.155Z,29.09
2019-06-10T16:33:55.092Z,29.42
2019-06-10T16:39:07.089Z,29.32
2019-06-10T16:44:15.792Z,29.84
2019-06-10T16:49:21.915Z,30.07
2019-06-10T16:54:27.634Z,29.74
2019-06-10T16:59:33.345Z,29.25
2019-06-10T17:04:39.310Z,29.20
2019-06-10T17:09:46.389Z,29.32
2019-06-10T17:15:00.290Z,29.28
2019-06-10T17:20:08.533Z,29.06
2019-06-10T17:25:17.621Z,28.91
2019-06-10T17:30:30.010Z,28.72
2019-06-10T17:35:40.260Z,28.31
2019-06-10T17:40:52.125Z,28.09
2019-06-10T17:45:59.907Z,27.97
2019-06-10T17:51:07.989Z,27.91
2019-06-10T17:56:14.979Z,27.67
2019-06-10T18:01:22.559Z,27.92
2019-06-10T18:06:34.352Z,27.56
2019-06-10T18:11:39.562Z,27.65
2019-06-10T18:16:48.183Z,27.45
2019-06-10T18:21:56.951Z,27.25
2019-06-10T18:27:02.736Z,27.58
2019-06-10T18:32:12.439Z,27.10
2019-06-10T18:37:18.760Z,26.97
2019-06-10T18:42:27.071Z,26.83
2019-06-10T18:47:35.706Z,26.71
2019-06-10T18:52:43.306Z,26.67
2019-06-10T18:57:52.885Z,26.54
2019-06-10T19:03:10.486Z,26.85
2019-06-10T19:08:08.605Z,26.57
2019-06-10T19:13:17.014Z,26.51
2019-06-10T19:18:23.446Z,26.44
2019-06-10T19:23:36.298Z,26.46
2019-06-10T19:28:45.275Z,26.34
2019-06-10T19:33:51.959Z,26.29
2019-06-10T19:39:02.339Z,26.28
2019-06-10T19:44:13.899Z,26.06
2019-06-10T19:49:21.330Z,25.85
2019-06-10T19:54:27.350Z,25.90
2019-06-10T19:59:50.398Z,25.71
2019-06-10T20:04:43.737Z,25.64
2019-06-10T20:09:52.123Z,25.41
2019-06-10T20:15:02.102Z,25.49
2019-06-10T20:20:08.730Z,25.41
2019-06-10T20:25:15.654Z,25.40
2019-06-10T20:30:28.298Z,24.35
2019-06-10T20:35:32.747Z,23.57
2019-06-10T20:40:42.794Z,23.10
2019-06-10T20:45:47.985Z,22.72
2019-06-10T20:50:53.621Z,21.37
2019-06-10T20:55:59.557Z,20.56
2019-06-10T21:01:05.669Z,20.51
2019-06-10T21:06:13.729Z,21.50
2019-06-10T21:11:23.123Z,21.06
2019-06-10T21:16:28.940Z,21.14
2019-06-10T21:21:34.813Z,21.51
2019-06-10T21:26:43.326Z,20.79
2019-06-10T21:31:49.918Z,20.32
2019-06-10T21:36:55.333Z,20.33
2019-06-10T21:42:02.260Z,20.16
2019-06-10T21:47:09.801Z,20.59
2019-06-10T21:52:16.718Z,20.63
2019-06-10T21:57:22.214Z,20.70
2019-06-10T22:02:27.783Z,19.67
2019-06-10T22:07:33.570Z,19.72
2019-06-10T22:12:42.201Z,20.11
2019-06-10T22:17:50.490Z,19.88
2019-06-10T22:22:56.526Z,20.13
2019-06-10T22:28:02.710Z,20.05
2019-06-10T22:33:08.562Z,19.83
2019-06-10T22:38:14.296Z,20.04
2019-06-10T22:43:19.744Z,19.39
2019-06-10T22:48:25.285Z,18.76
2019-06-10T22:53:33.382Z,19.05
2019-06-10T22:58:40.043Z,19.54
2019-06-10T23:03:45.543Z,19.68
2019-06-10T23:08:53.482Z,19.57
2019-06-10T23:13:59.584Z,19.81
2019-06-10T23:19:05.342Z,20.03
2019-06-10T23:24:13.234Z,19.87
2019-06-10T23:29:18.066Z,19.56
2019-06-10T23:34:23.528Z,19.38
2019-06-10T23:39:28.938Z,19.47
2019-06-10T23:44:34.480Z,19.66
2019-06-10T23:49:39.899Z,18.18
2019-06-10T23:54:45.327Z,19.04
2019-06-10T23:59:53.761Z,19.51
